sensor_id;sensor_type;location;lat;lon;timestamp;temperature;humidity
20654;DHT22;21083;50.898;4.902;2022-08-19T00:01:28;21.50;99.90
20654;DHT22;21083;50.898;4.902;2022-08-19T00:03:55;21.50;99.90
20654;DHT22;21083;50.898;4.902;2022-08-19T00:06:22;21.40;99.90
20654;DHT22;21083;50.898;4.902;2022-08-19T00:08:49;21.50;99.90
20654;DHT22;21083;50.898;4.902;2022-08-19T00:11:18;21.40;99.90
20654;DHT22;21083;50.898;4.902;2022-08-19T00:13:46;21.40;99.90
20654;DHT22;21083;50.898;4.902;2022-08-19T00:16:14;21.10;99.90
20654;DHT22;21083;50.898;4.902;2022-08-19T00:18:41;21.00;99.90
20654;DHT22;21083;50.898;4.902;2022-08-19T00:21:07;21.00;99.90
20654;DHT22;21083;50.898;4.902;2022-08-19T00:23:35;21.00;99.90
20654;DHT22;21083;50.898;4.902;2022-08-19T00:26:02;21.00;99.90
20654;DHT22;21083;50.898;4.902;2022-08-19T00:28:31;21.00;99.90
20654;DHT22;21083;50.898;4.902;2022-08-19T00:30:58;20.90;99.90
20654;DHT22;21083;50.898;4.902;2022-08-19T00:33:25;20.80;99.90
20654;DHT22;21083;50.898;4.902;2022-08-19T00:35:52;20.90;99.90
20654;DHT22;21083;50.898;4.902;2022-08-19T00:38:21;20.80;99.90
20654;DHT22;21083;50.898;4.902;2022-08-19T00:40:48;20.70;99.90
20654;DHT22;21083;50.898;4.902;2022-08-19T00:43:20;20.50;99.90
20654;DHT22;21083;50.898;4.902;2022-08-19T00:45:48;20.50;99.90
20654;DHT22;21083;50.898;4.902;2022-08-19T00:48:16;20.40;99.90
20654;DHT22;21083;50.898;4.902;2022-08-19T00:50:45;20.40;99.90
20654;DHT22;21083;50.898;4.902;2022-08-19T00:53:16;20.30;99.90
20654;DHT22;21083;50.898;4.902;2022-08-19T00:55:45;20.40;99.90
20654;DHT22;21083;50.898;4.902;2022-08-19T00:58:16;20.50;99.90
20654;DHT22;21083;50.898;4.902;2022-08-19T01:00:45;20.60;99.90
20654;DHT22;21083;50.898;4.902;2022-08-19T01:03:20;20.40;99.90
20654;DHT22;21083;50.898;4.902;2022-08-19T01:05:48;20.30;99.90
20654;DHT22;21083;50.898;4.902;2022-08-19T01:08:17;20.30;99.90
20654;DHT22;21083;50.898;4.902;2022-08-19T01:10:46;20.30;99.90
20654;DHT22;21083;50.898;4.902;2022-08-19T01:13:15;20.30;99.90
20654;DHT22;21083;50.898;4.902;2022-08-19T01:15:46;20.20;99.90
20654;DHT22;21083;50.898;4.902;2022-08-19T01:18:18;20.00;99.90
20654;DHT22;21083;50.898;4.902;2022-08-19T01:20:45;20.00;99.90
20654;DHT22;21083;50.898;4.902;2022-08-19T01:23:14;20.00;99.90
20654;DHT22;21083;50.898;4.902;2022-08-19T01:25:45;20.10;99.90
20654;DHT22;21083;50.898;4.902;2022-08-19T01:28:17;20.10;99.90
20654;DHT22;21083;50.898;4.902;2022-08-19T01:30:45;20.10;99.90
20654;DHT22;21083;50.898;4.902;2022-08-19T01:33:12;20.10;99.90
20654;DHT22;21083;50.898;4.902;2022-08-19T01:35:40;20.00;99.90
20654;DHT22;21083;50.898;4.902;2022-08-19T01:38:10;20.10;99.90
20654;DHT22;21083;50.898;4.902;2022-08-19T01:40:39;20.20;99.90
20654;DHT22;21083;50.898;4.902;2022-08-19T01:43:07;20.20;99.90
20654;DHT22;21083;50.898;4.902;2022-08-19T01:45:35;20.20;99.90
20654;DHT22;21083;50.898;4.902;2022-08-19T01:48:03;20.20;99.90
20654;DHT22;21083;50.898;4.902;2022-08-19T01:50:31;20.10;99.90
20654;DHT22;21083;50.898;4.902;2022-08-19T01:52:59;20.10;99.90
20654;DHT22;21083;50.898;4.902;2022-08-19T01:55:27;20.20;99.90
20654;DHT22;21083;50.898;4.902;2022-08-19T01:57:58;20.20;99.90
20654;DHT22;21083;50.898;4.902;2022-08-19T02:00:28;20.20;99.90
20654;DHT22;21083;50.898;4.902;2022-08-19T02:02:56;20.20;99.90
20654;DHT22;21083;50.898;4.902;2022-08-19T02:05:23;20.10;99.90
20654;DHT22;21083;50.898;4.902;2022-08-19T02:07:50;20.00;99.90
20654;DHT22;21083;50.898;4.902;2022-08-19T02:10:19;20.00;99.90
20654;DHT22;21083;50.898;4.902;2022-08-19T02:12:47;19.90;99.90
20654;DHT22;21083;50.898;4.902;2022-08-19T02:15:16;19.90;99.90
20654;DHT22;21083;50.898;4.902;2022-08-19T02:17:44;20.00;99.90
20654;DHT22;21083;50.898;4.902;2022-08-19T02:20:12;20.00;99.90
20654;DHT22;21083;50.898;4.902;2022-08-19T02:22:40;20.10;99.90
20654;DHT22;21083;50.898;4.902;2022-08-19T02:25:09;20.10;99.90
20654;DHT22;21083;50.898;4.902;2022-08-19T02:27:36;20.10;99.90
20654;DHT22;21083;50.898;4.902;2022-08-19T02:30:04;19.90;99.90
20654;DHT22;21083;50.898;4.902;2022-08-19T02:32:33;19.80;99.90
20654;DHT22;21083;50.898;4.902;2022-08-19T02:35:00;19.70;99.90
20654;DHT22;21083;50.898;4.902;2022-08-19T02:37:27;19.60;99.90
20654;DHT22;21083;50.898;4.902;2022-08-19T02:40:11;19.50;99.90
20654;DHT22;21083;50.898;4.902;2022-08-19T02:42:39;19.40;99.90
20654;DHT22;21083;50.898;4.902;2022-08-19T02:45:06;19.40;99.90
20654;DHT22;21083;50.898;4.902;2022-08-19T02:47:35;19.50;99.90
20654;DHT22;21083;50.898;4.902;2022-08-19T02:50:03;19.50;99.90
20654;DHT22;21083;50.898;4.902;2022-08-19T02:52:32;19.60;99.90
20654;DHT22;21083;50.898;4.902;2022-08-19T02:54:59;19.50;99.90
20654;DHT22;21083;50.898;4.902;2022-08-19T02:57:27;19.50;99.90
20654;DHT22;21083;50.898;4.902;2022-08-19T02:59:54;19.60;99.90
20654;DHT22;21083;50.898;4.902;2022-08-19T03:02:21;19.70;99.90
20654;DHT22;21083;50.898;4.902;2022-08-19T03:04:50;19.70;99.90
20654;DHT22;21083;50.898;4.902;2022-08-19T03:07:18;19.70;99.90
20654;DHT22;21083;50.898;4.902;2022-08-19T03:09:45;19.50;99.90
20654;DHT22;21083;50.898;4.902;2022-08-19T03:12:12;19.50;99.90
20654;DHT22;21083;50.898;4.902;2022-08-19T03:14:39;19.50;99.90
20654;DHT22;21083;50.898;4.902;2022-08-19T03:17:05;19.50;99.90
20654;DHT22;21083;50.898;4.902;2022-08-19T03:19:33;19.50;99.90
20654;DHT22;21083;50.898;4.902;2022-08-19T03:22:02;19.50;99.90
20654;DHT22;21083;50.898;4.902;2022-08-19T03:24:30;19.60;99.90
20654;DHT22;21083;50.898;4.902;2022-08-19T03:26:57;19.60;99.90
20654;DHT22;21083;50.898;4.902;2022-08-19T03:29:25;19.60;99.90
20654;DHT22;21083;50.898;4.902;2022-08-19T03:31:52;19.60;99.90
20654;DHT22;21083;50.898;4.902;2022-08-19T03:34:21;19.60;99.90
20654;DHT22;21083;50.898;4.902;2022-08-19T03:36:52;19.50;99.90
20654;DHT22;21083;50.898;4.902;2022-08-19T03:39:21;19.40;99.90
20654;DHT22;21083;50.898;4.902;2022-08-19T03:41:49;19.50;99.90
20654;DHT22;21083;50.898;4.902;2022-08-19T03:44:18;19.40;99.90
20654;DHT22;21083;50.898;4.902;2022-08-19T03:46:46;19.30;99.90
20654;DHT22;21083;50.898;4.902;2022-08-19T03:49:14;19.30;99.90
20654;DHT22;21083;50.898;4.902;2022-08-19T03:51:42;19.40;99.90
20654;DHT22;21083;50.898;4.902;2022-08-19T03:54:10;19.40;99.90
20654;DHT22;21083;50.898;4.902;2022-08-19T03:56:41;19.40;99.90
20654;DHT22;21083;50.898;4.902;2022-08-19T03:59:13;19.40;99.90
20654;DHT22;21083;50.898;4.902;2022-08-19T04:01:40;19.40;99.90
20654;DHT22;21083;50.898;4.902;2022-08-19T04:04:08;19.40;99.90
20654;DHT22;21083;50.898;4.902;2022-08-19T04:06:36;19.40;99.90
20654;DHT22;21083;50.898;4.902;2022-08-19T04:09:05;19.40;99.90
20654;DHT22;21083;50.898;4.902;2022-08-19T04:11:36;19.40;99.90
20654;DHT22;21083;50.898;4.902;2022-08-19T04:14:06;19.40;99.90
20654;DHT22;21083;50.898;4.902;2022-08-19T04:16:33;19.20;99.90
20654;DHT22;21083;50.898;4.902;2022-08-19T04:19:01;19.10;99.90
20654;DHT22;21083;50.898;4.902;2022-08-19T04:21:28;18.80;99.90
20654;DHT22;21083;50.898;4.902;2022-08-19T04:23:56;18.70;99.90
20654;DHT22;21083;50.898;4.902;2022-08-19T04:26:25;18.80;99.90
20654;DHT22;21083;50.898;4.902;2022-08-19T04:28:53;18.80;99.90
20654;DHT22;21083;50.898;4.902;2022-08-19T04:31:27;18.70;99.90
20654;DHT22;21083;50.898;4.902;2022-08-19T04:33:56;18.60;99.90
20654;DHT22;21083;50.898;4.902;2022-08-19T04:36:25;18.70;99.90
20654;DHT22;21083;50.898;4.902;2022-08-19T04:38:54;18.60;99.90
20654;DHT22;21083;50.898;4.902;2022-08-19T04:41:21;18.60;99.90
20654;DHT22;21083;50.898;4.902;2022-08-19T04:44:07;18.70;99.90
20654;DHT22;21083;50.898;4.902;2022-08-19T04:46:35;18.60;99.90
20654;DHT22;21083;50.898;4.902;2022-08-19T04:49:05;18.40;99.90
20654;DHT22;21083;50.898;4.902;2022-08-19T04:51:34;18.30;99.90
20654;DHT22;21083;50.898;4.902;2022-08-19T04:54:03;18.40;99.90
20654;DHT22;21083;50.898;4.902;2022-08-19T04:56:30;18.40;99.90
20654;DHT22;21083;50.898;4.902;2022-08-19T04:58:57;18.30;99.90
20654;DHT22;21083;50.898;4.902;2022-08-19T05:01:29;18.30;99.90
20654;DHT22;21083;50.898;4.902;2022-08-19T05:03:59;18.10;99.90
20654;DHT22;21083;50.898;4.902;2022-08-19T05:06:27;18.10;99.90
20654;DHT22;21083;50.898;4.902;2022-08-19T05:08:59;18.10;99.90
20654;DHT22;21083;50.898;4.902;2022-08-19T05:11:29;18.20;99.90
20654;DHT22;21083;50.898;4.902;2022-08-19T05:13:56;18.20;99.90
20654;DHT22;21083;50.898;4.902;2022-08-19T05:16:25;18.20;99.90
20654;DHT22;21083;50.898;4.902;2022-08-19T05:18:52;18.10;99.90
20654;DHT22;21083;50.898;4.902;2022-08-19T05:21:39;18.10;99.90
20654;DHT22;21083;50.898;4.902;2022-08-19T05:24:24;18.00;99.90
20654;DHT22;21083;50.898;4.902;2022-08-19T05:26:52;18.00;99.90
20654;DHT22;21083;50.898;4.902;2022-08-19T05:29:23;18.10;99.90
20654;DHT22;21083;50.898;4.902;2022-08-19T05:31:51;18.00;99.90
20654;DHT22;21083;50.898;4.902;2022-08-19T05:34:25;18.10;99.90
20654;DHT22;21083;50.898;4.902;2022-08-19T05:36:56;18.10;99.90
20654;DHT22;21083;50.898;4.902;2022-08-19T05:39:26;18.20;99.90
20654;DHT22;21083;50.898;4.902;2022-08-19T05:41:55;18.40;99.90
20654;DHT22;21083;50.898;4.902;2022-08-19T05:44:24;18.40;99.90
20654;DHT22;21083;50.898;4.902;2022-08-19T05:46:51;18.20;99.90
20654;DHT22;21083;50.898;4.902;2022-08-19T05:49:21;18.20;99.90
20654;DHT22;21083;50.898;4.902;2022-08-19T05:51:49;18.30;99.90
20654;DHT22;21083;50.898;4.902;2022-08-19T05:54:18;18.20;99.90
20654;DHT22;21083;50.898;4.902;2022-08-19T05:56:45;18.30;99.90
20654;DHT22;21083;50.898;4.902;2022-08-19T05:59:14;18.20;99.90
20654;DHT22;21083;50.898;4.902;2022-08-19T06:01:43;18.20;99.90
20654;DHT22;21083;50.898;4.902;2022-08-19T06:04:11;18.20;99.90
20654;DHT22;21083;50.898;4.902;2022-08-19T06:06:39;18.10;99.90
20654;DHT22;21083;50.898;4.902;2022-08-19T06:09:07;18.20;99.90
20654;DHT22;21083;50.898;4.902;2022-08-19T06:11:40;18.20;99.90
20654;DHT22;21083;50.898;4.902;2022-08-19T06:14:11;18.20;99.90
20654;DHT22;21083;50.898;4.902;2022-08-19T06:16:41;18.30;99.90
20654;DHT22;21083;50.898;4.902;2022-08-19T06:19:10;18.30;99.90
20654;DHT22;21083;50.898;4.902;2022-08-19T06:21:38;18.30;99.90
20654;DHT22;21083;50.898;4.902;2022-08-19T06:24:08;18.50;99.90
20654;DHT22;21083;50.898;4.902;2022-08-19T06:26:39;18.50;99.90
20654;DHT22;21083;50.898;4.902;2022-08-19T06:29:10;18.50;99.90
20654;DHT22;21083;50.898;4.902;2022-08-19T06:31:40;18.50;99.90
20654;DHT22;21083;50.898;4.902;2022-08-19T06:34:07;18.60;99.90
20654;DHT22;21083;50.898;4.902;2022-08-19T06:36:36;18.60;99.90
20654;DHT22;21083;50.898;4.902;2022-08-19T06:39:08;18.70;99.90
20654;DHT22;21083;50.898;4.902;2022-08-19T06:41:40;18.60;99.90
20654;DHT22;21083;50.898;4.902;2022-08-19T06:44:09;18.60;99.90
20654;DHT22;21083;50.898;4.902;2022-08-19T06:46:36;18.60;99.90
20654;DHT22;21083;50.898;4.902;2022-08-19T06:49:04;18.70;99.90
20654;DHT22;21083;50.898;4.902;2022-08-19T06:51:32;18.90;99.90
20654;DHT22;21083;50.898;4.902;2022-08-19T06:53:59;19.00;99.90
20654;DHT22;21083;50.898;4.902;2022-08-19T06:56:29;18.90;99.90
20654;DHT22;21083;50.898;4.902;2022-08-19T06:59:01;18.80;99.90
20654;DHT22;21083;50.898;4.902;2022-08-19T07:01:28;18.90;99.90
20654;DHT22;21083;50.898;4.902;2022-08-19T07:03:55;19.00;99.90
20654;DHT22;21083;50.898;4.902;2022-08-19T07:06:23;18.90;99.90
20654;DHT22;21083;50.898;4.902;2022-08-19T07:08:50;19.00;99.90
20654;DHT22;21083;50.898;4.902;2022-08-19T07:11:18;19.10;99.90
20654;DHT22;21083;50.898;4.902;2022-08-19T07:13:46;19.00;99.90
20654;DHT22;21083;50.898;4.902;2022-08-19T07:16:17;19.30;99.90
20654;DHT22;21083;50.898;4.902;2022-08-19T07:18:45;19.40;99.90
20654;DHT22;21083;50.898;4.902;2022-08-19T07:21:16;19.40;99.90
20654;DHT22;21083;50.898;4.902;2022-08-19T07:23:43;19.70;99.90
20654;DHT22;21083;50.898;4.902;2022-08-19T07:26:16;19.80;99.90
20654;DHT22;21083;50.898;4.902;2022-08-19T07:28:45;19.90;99.90
20654;DHT22;21083;50.898;4.902;2022-08-19T07:31:15;19.80;99.90
20654;DHT22;21083;50.898;4.902;2022-08-19T07:33:44;20.10;99.90
20654;DHT22;21083;50.898;4.902;2022-08-19T07:36:13;20.10;99.90
20654;DHT22;21083;50.898;4.902;2022-08-19T07:38:43;20.10;99.90
20654;DHT22;21083;50.898;4.902;2022-08-19T07:41:12;20.20;99.90
20654;DHT22;21083;50.898;4.902;2022-08-19T07:43:40;20.30;99.90
20654;DHT22;21083;50.898;4.902;2022-08-19T07:46:09;20.30;99.90
20654;DHT22;21083;50.898;4.902;2022-08-19T07:48:37;20.40;99.90
20654;DHT22;21083;50.898;4.902;2022-08-19T07:51:06;20.40;99.90
20654;DHT22;21083;50.898;4.902;2022-08-19T07:53:34;20.50;99.90
20654;DHT22;21083;50.898;4.902;2022-08-19T07:56:02;20.50;99.90
20654;DHT22;21083;50.898;4.902;2022-08-19T07:58:31;20.60;99.90
20654;DHT22;21083;50.898;4.902;2022-08-19T08:00:59;20.60;99.90
20654;DHT22;21083;50.898;4.902;2022-08-19T08:03:27;20.70;99.90
20654;DHT22;21083;50.898;4.902;2022-08-19T08:06:10;20.80;99.90
20654;DHT22;21083;50.898;4.902;2022-08-19T08:08:55;21.10;99.90
20654;DHT22;21083;50.898;4.902;2022-08-19T08:11:39;21.20;99.90
20654;DHT22;21083;50.898;4.902;2022-08-19T08:14:07;21.20;99.90
20654;DHT22;21083;50.898;4.902;2022-08-19T08:16:35;21.10;99.90
20654;DHT22;21083;50.898;4.902;2022-08-19T08:19:03;20.90;99.90
20654;DHT22;21083;50.898;4.902;2022-08-19T08:21:32;21.10;99.90
20654;DHT22;21083;50.898;4.902;2022-08-19T08:24:00;21.30;99.90
20654;DHT22;21083;50.898;4.902;2022-08-19T08:26:26;21.40;99.90
20654;DHT22;21083;50.898;4.902;2022-08-19T08:28:53;21.40;99.90
20654;DHT22;21083;50.898;4.902;2022-08-19T08:31:20;21.60;99.90
20654;DHT22;21083;50.898;4.902;2022-08-19T08:33:47;22.00;99.90
20654;DHT22;21083;50.898;4.902;2022-08-19T08:36:14;22.30;99.90
20654;DHT22;21083;50.898;4.902;2022-08-19T08:38:43;22.40;99.90
20654;DHT22;21083;50.898;4.902;2022-08-19T08:41:17;22.50;99.90
20654;DHT22;21083;50.898;4.902;2022-08-19T08:43:48;22.70;99.90
20654;DHT22;21083;50.898;4.902;2022-08-19T08:46:21;22.80;99.90
20654;DHT22;21083;50.898;4.902;2022-08-19T08:48:52;22.80;99.90
20654;DHT22;21083;50.898;4.902;2022-08-19T08:51:23;22.70;99.90
20654;DHT22;21083;50.898;4.902;2022-08-19T08:53:54;22.60;99.90
20654;DHT22;21083;50.898;4.902;2022-08-19T08:56:22;22.70;99.90
20654;DHT22;21083;50.898;4.902;2022-08-19T08:58:56;22.90;99.90
20654;DHT22;21083;50.898;4.902;2022-08-19T09:01:24;22.60;99.90
20654;DHT22;21083;50.898;4.902;2022-08-19T09:03:51;22.60;99.90
20654;DHT22;21083;50.898;4.902;2022-08-19T09:06:23;22.70;99.90
20654;DHT22;21083;50.898;4.902;2022-08-19T09:09:03;23.00;99.90
20654;DHT22;21083;50.898;4.902;2022-08-19T09:11:44;23.20;99.90
20654;DHT22;21083;50.898;4.902;2022-08-19T09:14:32;23.20;99.90
20654;DHT22;21083;50.898;4.902;2022-08-19T09:16:59;23.20;99.90
20654;DHT22;21083;50.898;4.902;2022-08-19T09:19:29;23.40;99.90
20654;DHT22;21083;50.898;4.902;2022-08-19T09:21:56;23.60;99.90
20654;DHT22;21083;50.898;4.902;2022-08-19T09:24:32;23.60;99.90
20654;DHT22;21083;50.898;4.902;2022-08-19T09:27:01;23.40;99.90
20654;DHT22;21083;50.898;4.902;2022-08-19T09:29:28;23.40;99.90
20654;DHT22;21083;50.898;4.902;2022-08-19T09:31:55;23.40;99.90
20654;DHT22;21083;50.898;4.902;2022-08-19T09:34:21;23.50;99.90
20654;DHT22;21083;50.898;4.902;2022-08-19T09:36:49;23.60;99.90
20654;DHT22;21083;50.898;4.902;2022-08-19T09:39:18;23.50;99.90
20654;DHT22;21083;50.898;4.902;2022-08-19T09:41:46;23.80;99.90
20654;DHT22;21083;50.898;4.902;2022-08-19T09:44:15;24.00;99.90
20654;DHT22;21083;50.898;4.902;2022-08-19T09:46:42;23.70;99.90
20654;DHT22;21083;50.898;4.902;2022-08-19T09:49:11;23.50;99.90
20654;DHT22;21083;50.898;4.902;2022-08-19T09:51:39;23.20;99.90
20654;DHT22;21083;50.898;4.902;2022-08-19T09:54:06;23.10;99.90
20654;DHT22;21083;50.898;4.902;2022-08-19T09:56:33;23.10;99.90
20654;DHT22;21083;50.898;4.902;2022-08-19T09:59:03;23.00;99.90
20654;DHT22;21083;50.898;4.902;2022-08-19T10:01:31;23.10;99.90
20654;DHT22;21083;50.898;4.902;2022-08-19T10:03:59;23.10;99.90
20654;DHT22;21083;50.898;4.902;2022-08-19T10:06:28;23.40;99.90
20654;DHT22;21083;50.898;4.902;2022-08-19T10:08:58;23.40;99.90
20654;DHT22;21083;50.898;4.902;2022-08-19T10:11:25;23.60;99.90
20654;DHT22;21083;50.898;4.902;2022-08-19T10:13:53;23.80;99.90
20654;DHT22;21083;50.898;4.902;2022-08-19T10:16:22;23.90;99.90
20654;DHT22;21083;50.898;4.902;2022-08-19T10:18:51;23.90;99.90
20654;DHT22;21083;50.898;4.902;2022-08-19T10:21:21;23.80;99.90
20654;DHT22;21083;50.898;4.902;2022-08-19T10:23:51;23.60;99.90
20654;DHT22;21083;50.898;4.902;2022-08-19T10:26:22;23.60;99.90
20654;DHT22;21083;50.898;4.902;2022-08-19T10:28:49;23.70;99.90
20654;DHT22;21083;50.898;4.902;2022-08-19T10:31:19;23.70;99.90
20654;DHT22;21083;50.898;4.902;2022-08-19T10:33:48;23.80;99.90
20654;DHT22;21083;50.898;4.902;2022-08-19T10:36:18;23.90;99.90
20654;DHT22;21083;50.898;4.902;2022-08-19T10:38:48;24.00;99.90
20654;DHT22;21083;50.898;4.902;2022-08-19T10:41:18;23.70;99.90
20654;DHT22;21083;50.898;4.902;2022-08-19T10:43:45;23.80;99.90
20654;DHT22;21083;50.898;4.902;2022-08-19T10:46:14;23.90;99.90
20654;DHT22;21083;50.898;4.902;2022-08-19T10:48:42;24.00;99.90
20654;DHT22;21083;50.898;4.902;2022-08-19T10:51:12;24.10;99.90
20654;DHT22;21083;50.898;4.902;2022-08-19T10:53:57;24.00;99.90
20654;DHT22;21083;50.898;4.902;2022-08-19T10:56:26;24.20;99.90
20654;DHT22;21083;50.898;4.902;2022-08-19T10:59:11;24.30;99.90
20654;DHT22;21083;50.898;4.902;2022-08-19T11:01:40;24.40;99.90
20654;DHT22;21083;50.898;4.902;2022-08-19T11:04:07;24.60;99.90
20654;DHT22;21083;50.898;4.902;2022-08-19T11:06:38;24.50;99.90
20654;DHT22;21083;50.898;4.902;2022-08-19T11:09:06;24.50;99.90
20654;DHT22;21083;50.898;4.902;2022-08-19T11:11:34;24.60;99.90
20654;DHT22;21083;50.898;4.902;2022-08-19T11:14:06;24.60;99.90
20654;DHT22;21083;50.898;4.902;2022-08-19T11:16:33;24.80;99.90
20654;DHT22;21083;50.898;4.902;2022-08-19T11:19:00;24.70;99.90
20654;DHT22;21083;50.898;4.902;2022-08-19T11:21:30;24.80;99.90
20654;DHT22;21083;50.898;4.902;2022-08-19T11:24:05;25.00;99.90
20654;DHT22;21083;50.898;4.902;2022-08-19T11:26:33;24.80;99.90
20654;DHT22;21083;50.898;4.902;2022-08-19T11:29:01;24.90;99.90
20654;DHT22;21083;50.898;4.902;2022-08-19T11:31:30;24.90;99.90
20654;DHT22;21083;50.898;4.902;2022-08-19T11:33:58;25.00;99.90
20654;DHT22;21083;50.898;4.902;2022-08-19T11:36:25;24.70;99.90
20654;DHT22;21083;50.898;4.902;2022-08-19T11:38:52;25.00;99.90
20654;DHT22;21083;50.898;4.902;2022-08-19T11:41:22;25.00;99.90
20654;DHT22;21083;50.898;4.902;2022-08-19T11:43:49;25.00;99.90
20654;DHT22;21083;50.898;4.902;2022-08-19T11:46:19;24.70;99.90
20654;DHT22;21083;50.898;4.902;2022-08-19T11:48:46;24.70;99.90
20654;DHT22;21083;50.898;4.902;2022-08-19T11:51:15;24.90;99.90
20654;DHT22;21083;50.898;4.902;2022-08-19T11:53:42;25.00;99.90
20654;DHT22;21083;50.898;4.902;2022-08-19T11:56:09;25.30;99.90
20654;DHT22;21083;50.898;4.902;2022-08-19T11:58:38;25.10;99.90
20654;DHT22;21083;50.898;4.902;2022-08-19T12:01:07;25.20;99.90
20654;DHT22;21083;50.898;4.902;2022-08-19T12:03:34;25.30;99.90
20654;DHT22;21083;50.898;4.902;2022-08-19T12:06:04;25.20;99.90
20654;DHT22;21083;50.898;4.902;2022-08-19T12:08:31;25.10;99.90
20654;DHT22;21083;50.898;4.902;2022-08-19T12:10:58;25.30;99.90
20654;DHT22;21083;50.898;4.902;2022-08-19T12:13:27;25.20;99.90
20654;DHT22;21083;50.898;4.902;2022-08-19T12:15:56;25.30;99.90
20654;DHT22;21083;50.898;4.902;2022-08-19T12:18:23;25.10;99.90
20654;DHT22;21083;50.898;4.902;2022-08-19T12:20:52;25.10;99.90
20654;DHT22;21083;50.898;4.902;2022-08-19T12:23:20;24.90;99.90
20654;DHT22;21083;50.898;4.902;2022-08-19T12:25:48;24.80;99.90
20654;DHT22;21083;50.898;4.902;2022-08-19T12:28:18;24.50;99.90
20654;DHT22;21083;50.898;4.902;2022-08-19T12:30:45;24.50;99.90
20654;DHT22;21083;50.898;4.902;2022-08-19T12:33:16;24.10;99.90
20654;DHT22;21083;50.898;4.902;2022-08-19T12:35:44;24.00;99.90
20654;DHT22;21083;50.898;4.902;2022-08-19T12:38:12;24.10;99.90
20654;DHT22;21083;50.898;4.902;2022-08-19T12:40:40;24.30;99.90
20654;DHT22;21083;50.898;4.902;2022-08-19T12:43:07;24.50;99.90
20654;DHT22;21083;50.898;4.902;2022-08-19T12:45:35;24.40;99.90
20654;DHT22;21083;50.898;4.902;2022-08-19T12:48:03;24.40;99.90
20654;DHT22;21083;50.898;4.902;2022-08-19T12:50:32;24.20;99.90
20654;DHT22;21083;50.898;4.902;2022-08-19T12:52:59;24.10;99.90
20654;DHT22;21083;50.898;4.902;2022-08-19T12:55:26;24.20;99.90
20654;DHT22;21083;50.898;4.902;2022-08-19T12:57:54;24.30;99.90
20654;DHT22;21083;50.898;4.902;2022-08-19T13:00:23;24.30;99.90
20654;DHT22;21083;50.898;4.902;2022-08-19T13:02:51;24.60;99.90
20654;DHT22;21083;50.898;4.902;2022-08-19T13:05:20;24.80;99.90
20654;DHT22;21083;50.898;4.902;2022-08-19T13:07:50;25.10;99.90
20654;DHT22;21083;50.898;4.902;2022-08-19T13:10:19;25.30;99.90
20654;DHT22;21083;50.898;4.902;2022-08-19T13:12:49;25.20;99.90
20654;DHT22;21083;50.898;4.902;2022-08-19T13:15:18;25.20;99.90
20654;DHT22;21083;50.898;4.902;2022-08-19T13:17:46;25.50;99.90
20654;DHT22;21083;50.898;4.902;2022-08-19T13:20:15;25.70;99.90
20654;DHT22;21083;50.898;4.902;2022-08-19T13:22:42;25.60;99.90
20654;DHT22;21083;50.898;4.902;2022-08-19T13:25:12;25.60;99.90
20654;DHT22;21083;50.898;4.902;2022-08-19T13:27:40;25.70;99.90
20654;DHT22;21083;50.898;4.902;2022-08-19T13:30:10;25.80;99.90
20654;DHT22;21083;50.898;4.902;2022-08-19T13:32:54;25.80;99.90
20654;DHT22;21083;50.898;4.902;2022-08-19T13:35:41;25.90;99.90
20654;DHT22;21083;50.898;4.902;2022-08-19T13:38:08;26.40;99.90
20654;DHT22;21083;50.898;4.902;2022-08-19T13:40:38;26.40;99.90
20654;DHT22;21083;50.898;4.902;2022-08-19T13:43:05;26.80;99.90
20654;DHT22;21083;50.898;4.902;2022-08-19T13:45:33;26.90;99.90
20654;DHT22;21083;50.898;4.902;2022-08-19T13:48:02;27.40;99.90
20654;DHT22;21083;50.898;4.902;2022-08-19T13:50:33;27.70;99.90
20654;DHT22;21083;50.898;4.902;2022-08-19T13:53:00;28.20;99.90
20654;DHT22;21083;50.898;4.902;2022-08-19T13:55:28;28.40;99.90
20654;DHT22;21083;50.898;4.902;2022-08-19T13:58:00;27.90;99.90
20654;DHT22;21083;50.898;4.902;2022-08-19T14:00:30;27.50;99.90
20654;DHT22;21083;50.898;4.902;2022-08-19T14:02:57;27.20;99.90
20654;DHT22;21083;50.898;4.902;2022-08-19T14:05:25;27.10;99.90
20654;DHT22;21083;50.898;4.902;2022-08-19T14:07:53;26.80;99.90
20654;DHT22;21083;50.898;4.902;2022-08-19T14:10:21;26.70;99.90
20654;DHT22;21083;50.898;4.902;2022-08-19T14:12:52;26.60;99.90
20654;DHT22;21083;50.898;4.902;2022-08-19T14:15:22;26.60;99.90
20654;DHT22;21083;50.898;4.902;2022-08-19T14:17:51;26.80;99.90
20654;DHT22;21083;50.898;4.902;2022-08-19T14:20:18;26.80;99.90
20654;DHT22;21083;50.898;4.902;2022-08-19T14:22:46;26.70;99.90
20654;DHT22;21083;50.898;4.902;2022-08-19T14:25:18;26.70;99.90
20654;DHT22;21083;50.898;4.902;2022-08-19T14:27:45;26.80;99.90
20654;DHT22;21083;50.898;4.902;2022-08-19T14:30:16;26.80;99.90
20654;DHT22;21083;50.898;4.902;2022-08-19T14:32:44;26.90;99.90
20654;DHT22;21083;50.898;4.902;2022-08-19T14:35:14;27.00;99.90
20654;DHT22;21083;50.898;4.902;2022-08-19T14:37:42;26.80;99.90
20654;DHT22;21083;50.898;4.902;2022-08-19T14:40:10;26.90;99.90
20654;DHT22;21083;50.898;4.902;2022-08-19T14:42:38;27.20;99.90
20654;DHT22;21083;50.898;4.902;2022-08-19T14:45:06;27.60;99.90
20654;DHT22;21083;50.898;4.902;2022-08-19T14:47:33;27.70;99.90
20654;DHT22;21083;50.898;4.902;2022-08-19T14:50:02;27.40;99.90
20654;DHT22;21083;50.898;4.902;2022-08-19T14:52:29;27.00;99.90
20654;DHT22;21083;50.898;4.902;2022-08-19T14:54:56;26.70;99.90
20654;DHT22;21083;50.898;4.902;2022-08-19T14:57:23;26.70;99.90
20654;DHT22;21083;50.898;4.902;2022-08-19T14:59:50;26.60;99.90
20654;DHT22;21083;50.898;4.902;2022-08-19T15:02:17;26.70;99.90
20654;DHT22;21083;50.898;4.902;2022-08-19T15:04:43;26.30;99.90
20654;DHT22;21083;50.898;4.902;2022-08-19T15:07:12;26.10;99.90
20654;DHT22;21083;50.898;4.902;2022-08-19T15:09:39;26.10;99.90
20654;DHT22;21083;50.898;4.902;2022-08-19T15:12:07;26.00;99.90
20654;DHT22;21083;50.898;4.902;2022-08-19T15:14:36;26.00;99.90
20654;DHT22;21083;50.898;4.902;2022-08-19T15:17:04;26.10;99.90
20654;DHT22;21083;50.898;4.902;2022-08-19T15:19:32;25.90;99.90
20654;DHT22;21083;50.898;4.902;2022-08-19T15:22:01;25.80;99.90
20654;DHT22;21083;50.898;4.902;2022-08-19T15:24:30;25.80;99.90
20654;DHT22;21083;50.898;4.902;2022-08-19T15:26:57;25.90;99.90
20654;DHT22;21083;50.898;4.902;2022-08-19T15:29:24;25.90;99.90
20654;DHT22;21083;50.898;4.902;2022-08-19T15:31:52;25.70;99.90
20654;DHT22;21083;50.898;4.902;2022-08-19T15:34:21;25.40;99.90
20654;DHT22;21083;50.898;4.902;2022-08-19T15:36:48;25.20;99.90
20654;DHT22;21083;50.898;4.902;2022-08-19T15:39:14;25.00;99.90
20654;DHT22;21083;50.898;4.902;2022-08-19T15:41:43;25.00;99.90